Time;durP1;ratioP1;P1;durP2;ratioP2;P2;SDS_P1;SDS_P2;PMS_P1;PMS_P2;Temp;Humidity;BMP_temperature;BMP_pressure;BME280_temperature;BME280_humidity;BME280_pressure;Samples;Min_cycle;Max_cycle;Signal;HPM_P1;HPM_P2
2022/10/19 00:01:10;;;;;;;4.53;1.13;;;11.10;99.90;;;;;;5093064;28;20039;-74
2022/10/19 00:03:36;;;;;;;6.22;0.98;;;11.10;99.90;;;;;;5098436;28;20123;-74
2022/10/19 00:06:24;;;;;;;4.60;1.20;;;11.10;99.90;;;;;;5088909;28;20386;-74
2022/10/19 00:08:55;;;;;;;4.38;1.10;;;11.10;99.90;;;;;;5092099;28;20074;-74
2022/10/19 00:11:22;;;;;;;2.17;0.80;;;11.10;99.90;;;;;;5102315;28;20036;-74
2022/10/19 00:13:52;;;;;;;2.03;0.63;;;11.00;99.90;;;;;;5100933;28;20039;-74
2022/10/19 00:16:18;;;;;;;5.85;1.63;;;11.00;99.90;;;;;;5092315;28;20479;-74
2022/10/19 00:18:44;;;;;;;3.72;0.80;;;11.00;99.90;;;;;;5095316;28;20035;-74
2022/10/19 00:21:15;;;;;;;4.10;0.80;;;11.00;99.90;;;;;;5095294;28;20039;-73
2022/10/19 00:23:41;;;;;;;5.00;1.00;;;11.00;99.90;;;;;;5091930;28;20100;-74
2022/10/19 00:26:08;;;;;;;1.58;0.70;;;11.10;99.90;;;;;;5077437;28;20063;-73
2022/10/19 00:28:34;;;;;;;2.70;0.85;;;11.10;99.90;;;;;;5089259;28;20509;-74
2022/10/19 00:31:05;;;;;;;3.83;1.35;;;11.10;99.90;;;;;;5089457;28;20082;-74
2022/10/19 00:33:31;;;;;;;4.88;1.20;;;11.10;99.90;;;;;;5108012;28;20071;-74
2022/10/19 00:35:57;;;;;;;4.93;1.85;;;11.20;99.90;;;;;;5109542;28;20397;-78
2022/10/19 00:38:23;;;;;;;6.78;1.73;;;11.20;99.90;;;;;;5094993;28;20048;-79
2022/10/19 00:40:49;;;;;;;3.40;1.10;;;11.10;99.90;;;;;;5105142;27;20067;-81
2022/10/19 00:43:21;;;;;;;2.08;0.90;;;11.20;99.90;;;;;;5096312;28;20043;-74
2022/10/19 00:45:47;;;;;;;3.40;0.90;;;11.20;99.90;;;;;;5106150;28;20124;-79
2022/10/19 00:48:17;;;;;;;2.75;0.80;;;11.30;99.90;;;;;;5077370;28;20561;-73
2022/10/19 00:50:44;;;;;;;3.47;0.90;;;11.30;99.90;;;;;;5101636;28;20521;-72
2022/10/19 00:53:14;;;;;;;5.72;0.90;;;11.30;99.90;;;;;;5108506;28;20174;-73
2022/10/19 00:55:40;;;;;;;3.03;0.73;;;11.30;99.90;;;;;;5089374;28;20150;-73
2022/10/19 00:58:07;;;;;;;5.32;0.77;;;11.30;99.90;;;;;;5095320;28;20122;-73
2022/10/19 01:00:33;;;;;;;;;;;11.30;99.90;;;;;;5091813;28;20040;-73
2022/10/19 01:03:00;;;;;;;5.10;0.80;;;11.20;99.90;;;;;;5109962;28;20002;-73
2022/10/19 01:05:28;;;;;;;1.30;0.70;;;11.20;99.90;;;;;;5108702;28;20055;-73
2022/10/19 01:07:56;;;;;;;3.45;1.45;;;11.30;99.90;;;;;;5104565;28;20040;-73
2022/10/19 01:10:46;;;;;;;4.53;0.98;;;11.30;99.90;;;;;;5089516;28;20513;-72
2022/10/19 01:13:33;;;;;;;6.38;0.93;;;11.30;99.90;;;;;;5070470;28;20044;-73
2022/10/19 01:16:17;;;;;;;2.65;0.65;;;11.30;99.90;;;;;;5088688;28;20489;-73
2022/10/19 01:19:19;;;;;;;1.83;0.70;;;11.30;99.90;;;;;;5087188;28;20059;-73
2022/10/19 01:22:09;;;;;;;2.55;0.90;;;11.30;99.90;;;;;;5084722;28;20396;-73
2022/10/19 01:24:52;;;;;;;2.78;0.82;;;11.30;99.90;;;;;;5059723;28;20055;-73
2022/10/19 01:27:48;;;;;;;3.47;1.10;;;11.30;99.90;;;;;;5095493;28;20440;-73
2022/10/19 01:30:44;;;;;;;2.42;1.15;;;11.30;99.90;;;;;;5087366;28;20115;-73
2022/10/19 01:33:25;;;;;;;3.22;1.23;;;11.30;99.90;;;;;;5081787;28;20051;-73
2022/10/19 01:36:01;;;;;;;3.15;1.10;;;11.40;99.90;;;;;;5104638;28;20363;-73
2022/10/19 01:38:42;;;;;;;3.73;1.10;;;11.30;99.90;;;;;;5094840;28;20070;-73
2022/10/19 01:41:16;;;;;;;5.00;1.00;;;11.30;99.90;;;;;;5103139;28;20081;-73
2022/10/19 01:44:07;;;;;;;7.38;1.13;;;11.30;99.90;;;;;;5090286;28;20054;-73
2022/10/19 01:46:37;;;;;;;5.97;1.30;;;11.30;99.90;;;;;;5106672;28;20036;-73
2022/10/19 01:49:23;;;;;;;4.32;1.23;;;11.40;99.90;;;;;;5086753;28;20048;-73
2022/10/19 01:51:59;;;;;;;2.53;0.80;;;11.30;99.90;;;;;;5086237;28;20044;-73
2022/10/19 01:54:29;;;;;;;3.67;0.90;;;11.40;99.90;;;;;;5095898;28;20497;-73
2022/10/19 01:56:58;;;;;;;3.00;0.68;;;11.30;99.90;;;;;;5087075;28;20269;-73
2022/10/19 01:59:25;;;;;;;1.65;0.70;;;11.40;99.90;;;;;;5086817;28;20081;-73
2022/10/19 02:01:52;;;;;;;;;;;11.40;99.90;;;;;;5098675;28;20043;-73
2022/10/19 02:04:20;;;;;;;3.38;0.80;;;11.30;99.90;;;;;;5094251;28;20331;-73
2022/10/19 02:06:46;;;;;;;4.43;0.80;;;11.30;99.90;;;;;;5105385;28;20266;-71
2022/10/19 02:09:17;;;;;;;2.95;0.90;;;11.40;99.90;;;;;;5094101;28;20089;-71
2022/10/19 02:11:48;;;;;;;3.28;0.80;;;11.40;99.90;;;;;;5098980;28;20079;-71
2022/10/19 02:14:16;;;;;;;5.38;0.82;;;11.40;99.90;;;;;;5108245;28;20031;-71
2022/10/19 02:16:48;;;;;;;2.97;0.85;;;11.40;99.90;;;;;;5098920;28;20039;-70
2022/10/19 02:19:18;;;;;;;1.60;0.40;;;11.40;99.90;;;;;;5106771;28;20050;-71
2022/10/19 02:21:44;;;;;;;3.55;1.02;;;11.40;99.90;;;;;;5097698;28;20050;-71
2022/10/19 02:24:10;;;;;;;2.78;0.65;;;11.40;99.90;;;;;;5104221;28;20043;-71
2022/10/19 02:26:36;;;;;;;3.30;0.63;;;11.30;99.90;;;;;;5102251;28;20409;-71
2022/10/19 02:29:02;;;;;;;2.88;0.57;;;11.30;99.90;;;;;;5103757;28;20522;-71
2022/10/19 02:31:28;;;;;;;3.42;0.50;;;11.30;99.90;;;;;;5089162;28;20044;-71
2022/10/19 02:33:54;;;;;;;2.53;0.60;;;11.30;99.90;;;;;;5098542;28;20044;-71
2022/10/19 02:36:20;;;;;;;8.02;0.60;;;11.30;99.90;;;;;;5102539;28;20388;-71
2022/10/19 02:38:45;;;;;;;7.00;0.55;;;11.30;99.90;;;;;;5081285;28;20104;-71
2022/10/19 02:41:27;;;;;;;2.83;0.70;;;11.30;99.90;;;;;;5164164;22;20113;-74
2022/10/19 02:44:20;;;;;;;2.85;0.70;;;11.30;99.90;;;;;;5073201;28;20571;-75
2022/10/19 02:47:10;;;;;;;2.15;0.77;;;11.30;99.90;;;;;;5064307;28;20458;-75
2022/10/19 02:49:36;;;;;;;3.28;0.88;;;11.30;99.90;;;;;;5061961;28;20051;-75
2022/10/19 02:52:10;;;;;;;3.70;0.60;;;11.30;99.90;;;;;;5073166;28;20039;-75
2022/10/19 02:54:37;;;;;;;3.63;0.60;;;11.30;99.90;;;;;;5071492;28;20052;-75
2022/10/19 02:57:19;;;;;;;3.40;0.63;;;11.30;99.90;;;;;;5077222;28;20094;-73
2022/10/19 02:59:45;;;;;;;2.33;0.32;;;11.30;99.90;;;;;;5082943;28;20035;-75
2022/10/19 03:02:15;;;;;;;1.67;0.50;;;11.30;99.90;;;;;;5080891;28;20139;-73
2022/10/19 03:04:41;;;;;;;2.35;0.77;;;11.30;99.90;;;;;;5077476;28;20066;-75
2022/10/19 03:07:13;;;;;;;2.25;0.73;;;11.20;99.90;;;;;;5073976;28;20436;-74
2022/10/19 03:09:39;;;;;;;3.80;0.68;;;11.30;99.90;;;;;;5079445;28;20124;-75
2022/10/19 03:12:05;;;;;;;1.48;0.30;;;11.20;99.90;;;;;;5077704;28;20542;-73
2022/10/19 03:14:31;;;;;;;3.90;1.00;;;11.30;99.90;;;;;;5056553;28;20040;-75
2022/10/19 03:16:59;;;;;;;3.60;0.67;;;11.20;99.90;;;;;;5074247;28;20450;-74
2022/10/19 03:19:25;;;;;;;4.78;0.70;;;11.20;99.90;;;;;;5077588;28;20094;-75
2022/10/19 03:21:52;;;;;;;2.43;1.13;;;11.20;99.90;;;;;;5073974;28;20040;-74
2022/10/19 03:24:18;;;;;;;3.20;1.00;;;11.20;99.90;;;;;;5076818;28;20082;-74
2022/10/19 03:26:44;;;;;;;3.93;0.60;;;11.20;99.90;;;;;;5055469;28;20044;-74
2022/10/19 03:29:09;;;;;;;2.63;0.80;;;11.10;99.90;;;;;;5072670;28;20341;-81
2022/10/19 03:31:35;;;;;;;7.63;0.80;;;11.10;99.90;;;;;;5079338;28;20127;-74
2022/10/19 03:34:04;;;;;;;3.72;0.70;;;11.10;99.90;;;;;;5071832;28;20378;-75
2022/10/19 03:36:38;;;;;;;5.13;0.87;;;11.00;99.90;;;;;;5079774;28;20144;-78
2022/10/19 03:39:07;;;;;;;2.15;0.50;;;11.00;99.90;;;;;;5076202;28;20119;-74
2022/10/19 03:41:34;;;;;;;4.03;0.63;;;10.90;99.90;;;;;;5082640;28;20066;-77
2022/10/19 03:44:00;;;;;;;4.50;0.80;;;10.80;99.90;;;;;;5060516;28;20059;-79
2022/10/19 03:46:26;;;;;;;9.95;1.00;;;10.70;99.90;;;;;;5073477;28;20048;-75
2022/10/19 03:48:52;;;;;;;3.25;0.77;;;10.60;99.90;;;;;;5077453;28;20044;-74
2022/10/19 03:51:21;;;;;;;8.48;1.10;;;10.60;99.90;;;;;;5078300;28;20332;-74
2022/10/19 03:53:51;;;;;;;1.88;0.70;;;10.60;99.90;;;;;;5058658;28;20046;-74
2022/10/19 03:56:19;;;;;;;7.93;0.90;;;10.60;99.90;;;;;;5083490;28;20060;-73
2022/10/19 03:58:49;;;;;;;4.18;1.25;;;10.50;99.90;;;;;;5076402;28;20477;-74
2022/10/19 04:01:18;;;;;;;2.95;0.95;;;10.50;99.90;;;;;;5082271;28;20409;-74
2022/10/19 04:03:44;;;;;;;3.50;0.80;;;10.40;99.90;;;;;;5077881;28;20146;-74
2022/10/19 04:06:15;;;;;;;4.20;0.70;;;10.40;99.90;;;;;;5067800;28;20207;-73
2022/10/19 04:08:41;;;;;;;1.55;0.77;;;10.40;99.90;;;;;;5080007;28;20623;-73
2022/10/19 04:11:11;;;;;;;4.93;1.13;;;10.30;99.90;;;;;;5084139;28;20084;-73
2022/10/19 04:13:37;;;;;;;4.63;0.93;;;10.20;99.90;;;;;;5078303;28;20063;-72
2022/10/19 04:16:03;;;;;;;1.33;0.57;;;10.30;99.90;;;;;;5074428;28;20430;-74
2022/10/19 04:18:29;;;;;;;2.50;0.68;;;10.20;99.90;;;;;;5074706;28;20071;-74
2022/10/19 04:20:59;;;;;;;9.87;1.57;;;10.20;99.90;;;;;;5079222;28;20060;-74
2022/10/19 04:23:30;;;;;;;6.40;1.23;;;10.20;99.90;;;;;;5076827;28;20157;-74
2022/10/19 04:26:00;;;;;;;4.68;1.42;;;10.20;99.90;;;;;;5074922;28;20044;-73
2022/10/19 04:28:26;;;;;;;3.80;1.13;;;10.20;99.90;;;;;;5058357;28;20044;-73
2022/10/19 04:30:51;;;;;;;3.97;0.90;;;10.20;99.90;;;;;;5073345;28;20059;-73
2022/10/19 04:33:17;;;;;;;6.23;1.30;;;10.20;99.90;;;;;;5079056;28;20516;-74
2022/10/19 04:35:42;;;;;;;6.43;1.00;;;10.20;99.90;;;;;;5057030;28;20922;-74
2022/10/19 04:38:08;;;;;;;4.20;1.10;;;10.20;99.90;;;;;;5073136;28;20136;-74
2022/10/19 04:40:35;;;;;;;4.63;1.42;;;10.20;99.90;;;;;;5077275;28;20402;-74
2022/10/19 04:43:01;;;;;;;6.30;0.90;;;10.10;99.90;;;;;;5070688;28;20091;-74
2022/10/19 04:45:27;;;;;;;1.85;0.75;;;10.10;99.90;;;;;;5059156;28;20047;-74
2022/10/19 04:47:55;;;;;;;5.37;1.00;;;10.10;99.90;;;;;;5072802;28;20066;-74
2022/10/19 04:50:24;;;;;;;4.50;1.02;;;10.10;99.90;;;;;;5073045;28;20032;-74
2022/10/19 04:52:52;;;;;;;5.35;1.80;;;10.10;99.90;;;;;;5080948;28;20073;-74
2022/10/19 04:55:18;;;;;;;6.00;1.23;;;10.10;99.90;;;;;;5080266;28;20044;-74
2022/10/19 04:57:44;;;;;;;5.90;1.33;;;10.20;99.90;;;;;;5075190;28;20075;-74
2022/10/19 05:00:15;;;;;;;4.00;1.05;;;10.20;99.90;;;;;;5079619;28;20198;-74
2022/10/19 05:02:47;;;;;;;4.60;0.77;;;10.20;99.90;;;;;;5080294;28;20052;-74
2022/10/19 05:05:13;;;;;;;3.00;0.90;;;10.20;99.90;;;;;;5079071;28;20210;-74
2022/10/19 05:07:39;;;;;;;4.03;0.98;;;10.20;99.90;;;;;;5076741;28;20151;-73
2022/10/19 05:10:06;;;;;;;5.95;1.00;;;10.20;99.90;;;;;;5082773;28;20031;-73
2022/10/19 05:12:34;;;;;;;3.42;1.02;;;10.20;99.90;;;;;;5078090;28;20588;-73
2022/10/19 05:14:59;;;;;;;4.25;0.93;;;10.30;99.90;;;;;;5075263;28;20043;-73
2022/10/19 05:17:27;;;;;;;5.47;0.83;;;10.20;99.90;;;;;;5072000;28;20393;-74
2022/10/19 05:19:52;;;;;;;3.08;0.55;;;10.20;99.90;;;;;;5081056;28;20603;-73
2022/10/19 05:22:18;;;;;;;7.70;1.30;;;10.20;99.90;;;;;;5057142;28;20386;-73
2022/10/19 05:24:44;;;;;;;2.30;0.90;;;10.20;99.90;;;;;;5074467;28;20047;-74
2022/10/19 05:27:09;;;;;;;4.90;0.93;;;10.30;99.90;;;;;;5074709;28;20293;-73
2022/10/19 05:29:35;;;;;;;5.32;0.70;;;10.30;99.90;;;;;;5072584;28;20059;-74
2022/10/19 05:32:00;;;;;;;4.33;0.87;;;10.30;99.90;;;;;;5081251;28;20414;-73
2022/10/19 05:34:26;;;;;;;7.00;1.03;;;10.40;99.90;;;;;;5070580;28;20123;-74
2022/10/19 05:36:54;;;;;;;5.60;1.10;;;10.30;99.90;;;;;;5080597;28;20060;-74
2022/10/19 05:39:20;;;;;;;2.45;0.65;;;10.30;99.90;;;;;;5077893;28;20515;-74
2022/10/19 05:41:46;;;;;;;3.23;0.73;;;10.30;99.90;;;;;;5078215;28;20044;-74
2022/10/19 05:44:15;;;;;;;3.30;0.70;;;10.30;99.90;;;;;;5073960;28;20044;-74
2022/10/19 05:46:41;;;;;;;9.65;1.08;;;10.40;99.90;;;;;;5077487;28;20098;-74
2022/10/19 05:49:06;;;;;;;8.80;1.30;;;10.40;99.90;;;;;;5071455;28;20148;-74
2022/10/19 05:51:32;;;;;;;3.60;0.80;;;10.30;99.90;;;;;;5073821;28;20048;-73
2022/10/19 05:53:58;;;;;;;6.82;1.35;;;10.40;99.90;;;;;;5072060;28;20046;-73
2022/10/19 05:56:26;;;;;;;5.93;1.10;;;10.40;99.90;;;;;;5078249;28;20386;-74
2022/10/19 05:58:53;;;;;;;4.47;1.00;;;10.40;99.90;;;;;;5079184;28;20438;-73
2022/10/19 06:01:19;;;;;;;4.63;0.90;;;10.40;99.90;;;;;;5058739;28;20467;-74
2022/10/19 06:03:46;;;;;;;4.53;1.10;;;10.40;99.90;;;;;;5075741;28;20234;-74
2022/10/19 06:06:12;;;;;;;4.20;0.70;;;10.40;99.90;;;;;;5079827;28;20514;-74
2022/10/19 06:08:38;;;;;;;5.17;0.90;;;10.40;99.90;;;;;;5069367;28;20042;-74
2022/10/19 06:11:11;;;;;;;3.40;1.05;;;10.40;99.90;;;;;;5081268;28;20310;-74
2022/10/19 06:13:40;;;;;;;5.45;0.95;;;10.50;99.90;;;;;;5079186;28;20054;-74
2022/10/19 06:16:07;;;;;;;8.50;0.73;;;10.50;99.90;;;;;;5075579;28;20044;-73
2022/10/19 06:18:33;;;;;;;3.78;1.02;;;10.50;99.90;;;;;;5073334;28;20049;-73
2022/10/19 06:21:04;;;;;;;6.20;0.82;;;10.60;99.90;;;;;;5069126;28;20402;-74
2022/10/19 06:23:31;;;;;;;4.20;0.77;;;10.60;99.90;;;;;;5059412;28;20136;-73
2022/10/19 06:25:57;;;;;;;3.92;1.30;;;10.60;99.90;;;;;;5078202;28;20044;-73
2022/10/19 06:28:23;;;;;;;5.55;0.77;;;10.60;99.90;;;;;;5080580;28;20051;-73
2022/10/19 06:30:49;;;;;;;2.70;1.00;;;10.60;99.90;;;;;;5076361;28;21192;-73
2022/10/19 06:33:14;;;;;;;3.70;0.67;;;10.70;99.90;;;;;;5070630;28;20717;-74
2022/10/19 06:35:41;;;;;;;5.23;0.97;;;10.70;99.90;;;;;;5070719;28;20335;-73
2022/10/19 06:38:08;;;;;;;6.45;0.85;;;10.70;99.90;;;;;;5073789;28;20044;-73
2022/10/19 06:40:34;;;;;;;;;;;10.70;99.90;;;;;;5076652;28;20036;-74
2022/10/19 06:43:00;;;;;;;6.97;1.05;;;10.70;99.90;;;;;;5071038;28;19926;-73
2022/10/19 06:45:25;;;;;;;1.93;0.90;;;10.70;99.90;;;;;;5075708;28;20119;-74
2022/10/19 06:47:54;;;;;;;4.93;0.87;;;10.70;99.90;;;;;;5055982;28;20047;-74
2022/10/19 06:50:19;;;;;;;4.50;1.00;;;10.80;99.90;;;;;;5079652;28;20111;-74
2022/10/19 06:52:48;;;;;;;5.43;0.80;;;10.80;99.90;;;;;;5070387;28;20036;-74
2022/10/19 06:55:13;;;;;;;5.38;1.45;;;10.80;99.90;;;;;;5079200;28;20066;-74
2022/10/19 06:57:42;;;;;;;3.60;0.70;;;10.80;99.90;;;;;;5079675;28;20035;-74
2022/10/19 07:00:08;;;;;;;5.30;1.10;;;10.80;99.90;;;;;;5064741;28;20032;-74
2022/10/19 07:02:34;;;;;;;6.72;2.55;;;10.80;99.90;;;;;;5074388;28;20040;-74
2022/10/19 07:05:00;;;;;;;7.00;1.47;;;10.90;99.90;;;;;;5074647;28;20439;-74
2022/10/19 07:07:25;;;;;;;3.87;0.97;;;10.90;99.90;;;;;;5078871;28;20043;-74
2022/10/19 07:09:52;;;;;;;7.33;1.30;;;10.90;99.90;;;;;;5075441;28;20480;-74
2022/10/19 07:12:18;;;;;;;10.25;1.33;;;10.90;99.90;;;;;;5074812;28;20138;-76
2022/10/19 07:14:44;;;;;;;5.32;1.23;;;11.00;99.90;;;;;;5072064;28;20040;-74
2022/10/19 07:17:10;;;;;;;2.63;0.88;;;11.00;99.90;;;;;;5073276;28;20040;-76
2022/10/19 07:19:36;;;;;;;4.80;1.42;;;11.00;99.90;;;;;;5070548;28;20051;-76
2022/10/19 07:22:02;;;;;;;9.63;1.40;;;11.10;99.90;;;;;;5076449;28;20100;-76
2022/10/19 07:24:28;;;;;;;4.75;1.63;;;11.10;99.90;;;;;;5071541;28;20043;-76
2022/10/19 07:26:54;;;;;;;5.20;1.03;;;11.10;99.90;;;;;;5051946;28;20486;-76
2022/10/19 07:29:20;;;;;;;7.82;1.60;;;11.20;99.90;;;;;;5071789;28;20123;-76
2022/10/19 07:31:46;;;;;;;12.57;2.17;;;11.20;99.90;;;;;;5070518;28;20135;-76
2022/10/19 07:34:13;;;;;;;4.97;1.20;;;11.20;99.90;;;;;;5073830;28;20765;-76
2022/10/19 07:36:43;;;;;;;9.02;1.20;;;11.30;99.90;;;;;;5074886;28;20414;-76
2022/10/19 07:39:10;;;;;;;3.53;0.60;;;11.30;99.90;;;;;;5078461;28;20520;-76
2022/10/19 07:41:35;;;;;;;6.63;1.02;;;11.40;99.90;;;;;;5068561;28;20048;-75
2022/10/19 07:44:01;;;;;;;8.18;0.70;;;11.30;99.90;;;;;;5076116;28;20060;-75
2022/10/19 07:46:32;;;;;;;2.65;0.50;;;11.40;99.90;;;;;;5071693;28;20574;-76
2022/10/19 07:48:58;;;;;;;7.72;0.77;;;11.40;99.90;;;;;;5076740;28;20051;-76
2022/10/19 07:51:25;;;;;;;6.47;0.90;;;11.40;99.90;;;;;;5081221;28;20114;-76
2022/10/19 07:53:51;;;;;;;3.20;0.80;;;11.50;99.90;;;;;;5081717;28;20489;-75
2022/10/19 07:56:18;;;;;;;3.67;0.80;;;11.40;99.90;;;;;;5078248;28;20550;-75
2022/10/19 07:58:44;;;;;;;9.77;1.10;;;11.50;99.90;;;;;;5077766;28;20162;-75
2022/10/19 08:01:12;;;;;;;2.15;0.60;;;11.50;99.90;;;;;;5073966;28;20151;-75
2022/10/19 08:03:39;;;;;;;5.28;0.80;;;11.60;99.90;;;;;;5071125;28;20507;-75
2022/10/19 08:06:07;;;;;;;5.75;0.60;;;11.60;99.90;;;;;;5074443;28;20047;-75
2022/10/19 08:08:33;;;;;;;2.88;0.60;;;11.70;99.90;;;;;;5063339;28;20661;-76
2022/10/19 08:11:07;;;;;;;4.88;0.88;;;11.70;99.90;;;;;;5078435;28;20127;-75
2022/10/19 08:13:33;;;;;;;4.82;1.38;;;11.70;99.90;;;;;;5074111;28;20675;-75
2022/10/19 08:15:59;;;;;;;5.80;0.47;;;11.70;99.90;;;;;;5074904;28;20302;-75
2022/10/19 08:18:24;;;;;;;6.15;1.55;;;11.80;99.90;;;;;;5080321;28;20515;-75
2022/10/19 08:20:50;;;;;;;9.07;0.67;;;11.80;99.90;;;;;;5074950;28;20067;-75
2022/10/19 08:23:15;;;;;;;7.70;1.13;;;11.90;99.90;;;;;;5075861;28;20036;-75
2022/10/19 08:25:41;;;;;;;6.30;0.93;;;11.90;99.90;;;;;;5072562;28;20426;-75
2022/10/19 08:28:07;;;;;;;4.73;1.00;;;11.90;99.90;;;;;;5076278;28;20080;-75
2022/10/19 08:30:36;;;;;;;6.27;0.97;;;12.00;99.90;;;;;;5079115;28;20044;-75
2022/10/19 08:33:04;;;;;;;7.63;0.77;;;12.00;99.90;;;;;;5071146;28;20041;-75
2022/10/19 08:35:30;;;;;;;2.72;0.90;;;12.00;99.90;;;;;;5095448;28;20048;-75
2022/10/19 08:37:56;;;;;;;;;;;12.00;99.90;;;;;;5077591;28;20488;-75
2022/10/19 08:40:26;;;;;;;3.28;1.10;;;12.00;99.90;;;;;;5080207;28;19968;-75
2022/10/19 08:42:55;;;;;;;6.95;0.90;;;12.10;99.90;;;;;;5072900;28;20055;-75
2022/10/19 08:45:49;;;;;;;1.88;0.52;;;12.20;99.90;;;;;;5074910;28;20044;-75
2022/10/19 08:48:36;;;;;;;3.33;0.70;;;12.20;99.90;;;;;;5067833;28;20482;-75
2022/10/19 08:51:06;;;;;;;4.60;0.88;;;12.20;99.90;;;;;;5081468;28;20278;-75
2022/10/19 08:53:40;;;;;;;3.22;0.50;;;12.30;99.90;;;;;;5070569;28;20203;-76
2022/10/19 08:56:27;;;;;;;7.10;1.20;;;12.30;99.90;;;;;;5083179;28;20108;-75
2022/10/19 08:59:01;;;;;;;1.65;0.50;;;12.30;99.90;;;;;;5057613;28;20058;-75
2022/10/19 09:01:29;;;;;;;2.60;0.75;;;12.30;99.90;;;;;;5072360;28;20078;-75
2022/10/19 09:04:02;;;;;;;5.82;0.82;;;12.30;99.90;;;;;;5073045;28;20393;-75
2022/10/19 09:06:36;;;;;;;3.95;0.93;;;12.40;99.90;;;;;;5072110;28;20243;-75
2022/10/19 09:09:02;;;;;;;5.10;0.93;;;12.40;99.90;;;;;;5070586;28;20436;-75
2022/10/19 09:11:33;;;;;;;6.32;0.80;;;12.50;99.90;;;;;;5057177;28;20071;-75
2022/10/19 09:14:17;;;;;;;5.30;0.80;;;12.50;99.90;;;;;;5059180;28;20529;-75
2022/10/19 09:16:42;;;;;;;3.97;0.82;;;12.50;99.90;;;;;;5077009;28;20474;-75
2022/10/19 09:19:16;;;;;;;8.52;0.90;;;12.50;99.90;;;;;;5076724;28;20187;-75
2022/10/19 09:21:50;;;;;;;4.95;1.15;;;12.60;99.90;;;;;;5075838;28;20500;-75
2022/10/19 09:24:28;;;;;;;5.97;0.63;;;12.60;99.90;;;;;;5070664;28;20044;-75
2022/10/19 09:27:04;;;;;;;4.35;0.65;;;12.60;99.90;;;;;;5070945;28;20036;-75
2022/10/19 09:29:44;;;;;;;4.07;0.70;;;12.70;99.90;;;;;;5075094;28;20125;-75
2022/10/19 09:32:20;;;;;;;4.65;0.63;;;12.70;99.90;;;;;;5054755;28;20047;-75
2022/10/19 09:34:56;;;;;;;3.95;0.50;;;12.70;99.90;;;;;;5061225;28;20166;-75
2022/10/19 09:37:23;;;;;;;5.75;0.80;;;12.70;99.90;;;;;;5072795;28;20482;-75
2022/10/19 09:39:49;;;;;;;2.30;0.60;;;12.70;99.90;;;;;;5078594;28;20484;-75
2022/10/19 09:42:31;;;;;;;5.68;0.77;;;12.70;99.90;;;;;;5073104;28;20565;-75
2022/10/19 09:45:10;;;;;;;6.60;0.93;;;12.70;99.90;;;;;;5080161;28;20040;-76
2022/10/19 09:47:41;;;;;;;5.55;1.38;;;12.80;99.90;;;;;;5072641;28;20067;-75
2022/10/19 09:50:19;;;;;;;4.22;0.75;;;12.80;99.90;;;;;;5073430;28;20110;-75
2022/10/19 09:52:54;;;;;;;3.08;1.05;;;12.80;99.90;;;;;;5072129;28;20430;-75
2022/10/19 09:55:43;;;;;;;3.95;1.10;;;12.80;99.90;;;;;;5079561;28;20489;-75
2022/10/19 09:58:18;;;;;;;5.95;0.90;;;12.90;99.90;;;;;;5078381;28;20051;-75
2022/10/19 10:00:54;;;;;;;5.57;1.08;;;12.90;99.90;;;;;;5075617;28;20074;-75
2022/10/19 10:03:31;;;;;;;2.97;0.80;;;12.90;99.90;;;;;;5079031;28;20493;-75
2022/10/19 10:06:02;;;;;;;2.30;0.82;;;12.90;99.90;;;;;;5072973;28;20054;-75
2022/10/19 10:08:44;;;;;;;4.80;0.90;;;12.90;99.90;;;;;;5090430;28;20143;-75
2022/10/19 10:11:13;;;;;;;8.00;0.90;;;13.10;99.90;;;;;;5078129;28;20093;-75
2022/10/19 10:13:42;;;;;;;6.43;1.10;;;13.10;99.90;;;;;;5059940;28;20051;-75
2022/10/19 10:16:15;;;;;;;6.45;1.45;;;13.00;99.90;;;;;;5074362;28;20097;-75
2022/10/19 10:18:52;;;;;;;2.65;0.90;;;13.00;99.90;;;;;;5079120;28;20225;-73
2022/10/19 10:21:45;;;;;;;3.25;0.93;;;13.10;99.90;;;;;;5081863;28;20489;-73
2022/10/19 10:24:11;;;;;;;2.17;0.77;;;13.10;99.90;;;;;;5073450;28;20076;-73
2022/10/19 10:26:39;;;;;;;3.93;0.90;;;13.10;99.90;;;;;;5084117;28;20138;-73
2022/10/19 10:29:18;;;;;;;6.55;0.70;;;13.20;99.90;;;;;;5080335;28;20505;-73
2022/10/19 10:31:45;;;;;;;1.75;0.57;;;13.20;99.90;;;;;;5076153;28;20066;-73
2022/10/19 10:34:36;;;;;;;1.00;0.38;;;13.30;99.90;;;;;;5082848;28;20035;-72
2022/10/19 10:37:04;;;;;;;8.43;0.82;;;13.30;99.90;;;;;;5079140;28;20044;-72
2022/10/19 10:39:30;;;;;;;5.50;1.00;;;13.30;99.90;;;;;;5073182;28;20054;-73
2022/10/19 10:42:01;;;;;;;2.22;0.50;;;13.30;99.90;;;;;;5080846;28;20142;-73
2022/10/19 10:44:32;;;;;;;5.05;0.70;;;13.30;99.90;;;;;;5080661;28;20397;-73
2022/10/19 10:47:00;;;;;;;3.60;0.40;;;13.30;99.90;;;;;;5071741;28;20171;-73
2022/10/19 10:49:36;;;;;;;4.90;0.73;;;13.30;99.90;;;;;;5077134;28;20040;-73
2022/10/19 10:52:11;;;;;;;2.63;0.60;;;13.30;99.90;;;;;;5083287;28;20047;-73
2022/10/19 10:54:37;;;;;;;3.30;0.63;;;13.30;99.90;;;;;;5073755;28;20052;-72
2022/10/19 10:57:20;;;;;;;4.18;0.50;;;13.40;99.90;;;;;;5074626;28;20536;-73
2022/10/19 10:59:48;;;;;;;4.28;0.57;;;13.40;99.90;;;;;;5084420;28;20048;-73
2022/10/19 11:02:38;;;;;;;6.90;1.63;;;13.50;99.90;;;;;;5082760;28;20384;-73
2022/10/19 11:05:16;;;;;;;2.10;0.80;;;13.50;99.90;;;;;;5077600;28;20068;-73
2022/10/19 11:07:46;;;;;;;4.13;0.75;;;13.50;99.90;;;;;;5073799;28;20043;-73
2022/10/19 11:10:38;;;;;;;2.13;0.60;;;13.50;99.90;;;;;;5079374;28;20035;-73
2022/10/19 11:13:07;;;;;;;3.10;0.57;;;13.50;99.90;;;;;;5075977;28;20058;-73
2022/10/19 11:16:00;;;;;;;3.47;0.50;;;13.60;99.90;;;;;;5082773;28;20109;-73
2022/10/19 11:18:41;;;;;;;6.28;0.80;;;13.60;99.90;;;;;;5077341;28;20040;-72
2022/10/19 11:21:16;;;;;;;2.88;0.68;;;13.60;99.90;;;;;;5079563;28;20052;-72
2022/10/19 11:24:22;;;;;;;8.85;0.55;;;13.80;99.90;;;;;;5099412;28;20068;-72
2022/10/19 11:27:16;;;;;;;5.63;0.60;;;14.00;99.90;;;;;;5083934;28;20150;-72
2022/10/19 11:30:12;;;;;;;3.33;0.60;;;14.20;99.90;;;;;;5071976;28;20048;-72
2022/10/19 11:32:57;;;;;;;2.83;1.13;;;14.30;99.90;;;;;;5081183;28;20040;-72
2022/10/19 11:35:58;;;;;;;4.60;0.65;;;14.30;99.90;;;;;;5081728;28;20048;-72
2022/10/19 11:38:42;;;;;;;5.18;0.85;;;14.40;99.90;;;;;;5078572;28;20048;-72
2022/10/19 11:41:34;;;;;;;9.70;1.23;;;14.60;99.90;;;;;;5080549;28;20048;-71
2022/10/19 11:44:18;;;;;;;4.28;0.80;;;14.60;99.90;;;;;;5077749;28;20048;-71
2022/10/19 11:47:18;;;;;;;4.40;1.25;;;14.70;99.90;;;;;;5080345;28;20044;-71
2022/10/19 11:49:50;;;;;;;5.68;1.10;;;14.70;99.90;;;;;;5061890;28;20308;-71
2022/10/19 11:52:25;;;;;;;5.25;1.65;;;14.70;99.90;;;;;;5085865;28;20454;-72
2022/10/19 11:55:32;;;;;;;4.47;0.80;;;14.60;99.90;;;;;;5080664;28;20042;-71
2022/10/19 11:58:04;;;;;;;3.22;0.68;;;14.50;99.90;;;;;;4995008;28;20044;-71
2022/10/19 12:00:39;;;;;;;2.47;0.60;;;14.40;99.90;;;;;;5063813;28;20060;-71
2022/10/19 12:03:37;;;;;;;4.90;1.00;;;14.30;99.90;;;;;;5077857;28;20217;-72
2022/10/19 12:06:12;;;;;;;2.25;0.80;;;14.20;99.90;;;;;;5081020;28;20138;-72
2022/10/19 12:09:18;;;;;;;4.28;0.90;;;14.20;99.90;;;;;;5082576;28;20040;-72
2022/10/19 12:12:13;;;;;;;5.40;0.70;;;14.20;99.90;;;;;;5083312;28;20143;-71
2022/10/19 12:14:42;;;;;;;3.95;1.05;;;14.50;99.90;;;;;;5077310;28;20496;-72
2022/10/19 12:17:14;;;;;;;4.13;1.20;;;14.70;99.90;;;;;;5081747;28;20227;-71
2022/10/19 12:19:45;;;;;;;1.38;0.38;;;14.90;99.90;;;;;;5082038;28;20047;-72
2022/10/19 12:22:15;;;;;;;4.47;0.77;;;15.10;99.90;;;;;;5078714;28;20406;-71
2022/10/19 12:24:41;;;;;;;4.55;0.77;;;15.30;99.90;;;;;;5064087;28;20137;-71
2022/10/19 12:27:12;;;;;;;5.68;1.23;;;15.40;99.90;;;;;;5082048;28;20526;-72
2022/10/19 12:29:43;;;;;;;3.28;0.68;;;15.60;99.90;;;;;;5079719;28;20198;-72
2022/10/19 12:32:12;;;;;;;4.13;0.63;;;15.70;99.90;;;;;;5083588;28;20035;-71
2022/10/19 12:34:56;;;;;;;2.05;0.60;;;15.80;99.90;;;;;;5074027;28;20040;-71
2022/10/19 12:37:38;;;;;;;5.43;0.50;;;15.80;99.90;;;;;;5081899;28;20036;-71
2022/10/19 12:43:11;;;;;;;1.83;0.47;;;15.60;99.90;;;;;;5115802;27;20136;-72
2022/10/19 12:46:09;;;;;;;3.95;0.70;;;15.40;99.90;;;;;;5097934;28;20062;-72
2022/10/19 12:48:36;;;;;;;2.97;0.45;;;15.30;99.90;;;;;;5066390;28;20048;-72
2022/10/19 12:51:04;;;;;;;3.63;0.65;;;15.10;99.90;;;;;;5085844;28;20047;-72
2022/10/19 12:53:35;;;;;;;5.10;1.15;;;15.00;99.90;;;;;;5104156;28;20092;-72
2022/10/19 12:56:23;;;;;;;3.60;0.85;;;14.90;99.90;;;;;;5097007;28;20331;-72
2022/10/19 12:58:51;;;;;;;4.78;0.98;;;15.00;99.90;;;;;;5095314;28;20128;-72
2022/10/19 13:01:23;;;;;;;6.18;0.98;;;15.10;99.90;;;;;;5101178;28;20040;-72
2022/10/19 13:04:13;;;;;;;3.00;0.80;;;15.20;99.90;;;;;;5092296;28;20089;-72
2022/10/19 13:06:46;;;;;;;4.47;0.65;;;15.30;99.90;;;;;;5100498;28;20544;-72
2022/10/19 13:09:32;;;;;;;3.55;1.10;;;15.40;99.90;;;;;;5090014;28;20040;-71
2022/10/19 13:12:13;;;;;;;7.78;1.77;;;15.60;99.90;;;;;;5103137;28;20413;-72
2022/10/19 13:14:52;;;;;;;4.68;1.10;;;15.70;99.90;;;;;;5094940;28;20442;-72